createdAt,value
2019-06-23T00:01:00.403Z,7.73
2019-06-23T00:03:37.209Z,11.53
2019-06-23T00:06:07.103Z,9.80
2019-06-23T00:08:40.265Z,8.37
2019-06-23T00:11:12.508Z,8.87
2019-06-23T00:13:45.347Z,8.27
2019-06-23T00:16:18.671Z,9.07
2019-06-23T00:18:51.471Z,8.30
2019-06-23T00:21:24.039Z,8.07
2019-06-23T00:23:57.286Z,8.90
2019-06-23T00:26:29.910Z,9.33
2019-06-23T00:29:02.363Z,9.87
2019-06-23T00:31:41.129Z,8.20
2019-06-23T00:34:14.051Z,10.27
2019-06-23T00:36:46.934Z,9.67
2019-06-23T00:39:19.222Z,8.00
2019-06-23T00:41:51.777Z,8.97
2019-06-23T00:44:25.482Z,8.33
2019-06-23T00:46:58.272Z,7.97
2019-06-23T00:49:30.563Z,8.97
2019-06-23T00:52:02.872Z,10.43
2019-06-23T00:54:35.164Z,7.63
2019-06-23T00:57:07.752Z,8.40
2019-06-23T00:59:40.046Z,8.63
2019-06-23T01:02:21.608Z,8.17
2019-06-23T01:04:54.463Z,8.30
2019-06-23T01:07:28.614Z,9.93
2019-06-23T01:10:02.822Z,9.63
2019-06-23T01:12:36.430Z,9.30
2019-06-23T01:15:10.123Z,11.30
2019-06-23T01:17:43.560Z,9.17
2019-06-23T01:20:16.271Z,8.23
2019-06-23T01:22:50.620Z,9.47
2019-06-23T01:25:22.941Z,8.57
2019-06-23T01:27:57.005Z,9.57
2019-06-23T01:30:31.067Z,9.10
2019-06-23T01:33:04.977Z,8.93
2019-06-23T01:35:38.599Z,9.83
2019-06-23T01:38:11.087Z,8.40
2019-06-23T01:40:44.409Z,11.00
2019-06-23T01:43:17.897Z,9.43
2019-06-23T01:45:50.200Z,9.90
2019-06-23T01:48:22.548Z,8.70
2019-06-23T01:50:55.212Z,9.53
2019-06-23T01:53:27.904Z,8.10
2019-06-23T01:56:00.222Z,8.53
2019-06-23T01:58:33.467Z,9.53
2019-06-23T02:01:06.007Z,9.63
2019-06-23T02:03:38.338Z,9.03
2019-06-23T02:06:10.985Z,9.50
2019-06-23T02:08:44.183Z,12.03
2019-06-23T02:11:17.880Z,8.57
2019-06-23T02:13:50.577Z,9.80
2019-06-23T02:16:22.905Z,8.70
2019-06-23T02:18:55.718Z,9.65
2019-06-23T02:21:29.658Z,10.30
2019-06-23T02:24:01.901Z,11.27
2019-06-23T02:26:35.182Z,9.00
2019-06-23T02:29:07.629Z,9.20
2019-06-23T02:31:40.537Z,9.07
2019-06-23T02:34:13.000Z,9.63
2019-06-23T02:36:45.412Z,11.70
2019-06-23T02:39:17.872Z,9.10
2019-06-23T02:41:50.511Z,9.33
2019-06-23T02:44:23.321Z,8.70
2019-06-23T02:47:03.665Z,8.77
2019-06-23T02:49:43.642Z,9.67
2019-06-23T02:52:35.805Z,8.40
2019-06-23T02:55:10.508Z,9.23
2019-06-23T02:58:00.174Z,10.20
2019-06-23T03:00:34.385Z,7.60
2019-06-23T03:03:07.079Z,8.33
2019-06-23T03:05:39.394Z,8.23
2019-06-23T03:08:12.224Z,8.83
2019-06-23T03:10:45.461Z,9.23
2019-06-23T03:13:19.629Z,10.30
2019-06-23T03:15:52.123Z,8.87
2019-06-23T03:18:24.438Z,10.07
2019-06-23T03:20:57.057Z,7.47
2019-06-23T03:23:30.089Z,9.03
2019-06-23T03:26:16.130Z,9.23
2019-06-23T03:28:48.911Z,11.13
2019-06-23T03:31:21.769Z,9.60
2019-06-23T03:33:54.152Z,9.73
2019-06-23T03:36:26.471Z,7.83
2019-06-23T03:38:59.674Z,9.00
2019-06-23T03:41:32.811Z,9.53
2019-06-23T03:44:07.069Z,8.07
2019-06-23T03:46:39.936Z,9.00
2019-06-23T03:49:12.238Z,8.10
2019-06-23T03:51:44.868Z,7.63
2019-06-23T03:54:17.199Z,10.43
2019-06-23T03:56:50.632Z,9.77
2019-06-23T03:59:23.523Z,10.07
2019-06-23T04:01:56.100Z,7.30
2019-06-23T04:04:30.106Z,7.77
2019-06-23T04:07:02.341Z,7.13
2019-06-23T04:09:35.062Z,8.37
2019-06-23T04:12:07.749Z,8.37
2019-06-23T04:14:40.455Z,9.83
2019-06-23T04:17:12.689Z,8.70
2019-06-23T04:19:45.485Z,7.13
2019-06-23T04:22:18.469Z,10.17
2019-06-23T04:24:51.238Z,8.43
2019-06-23T04:27:23.917Z,10.23
2019-06-23T04:29:56.226Z,12.37
2019-06-23T04:32:28.595Z,7.80
2019-06-23T04:35:00.896Z,7.00
2019-06-23T04:37:33.129Z,8.07
2019-06-23T04:40:08.135Z,8.10
2019-06-23T04:42:40.353Z,8.43
2019-06-23T04:45:13.183Z,7.87
2019-06-23T04:47:45.859Z,6.97
2019-06-23T04:50:18.961Z,7.20
2019-06-23T04:52:53.231Z,6.97
2019-06-23T04:55:25.520Z,5.50
2019-06-23T04:57:58.183Z,6.70
2019-06-23T05:00:30.669Z,7.17
2019-06-23T05:03:03.638Z,6.67
2019-06-23T05:05:36.149Z,6.30
2019-06-23T05:08:08.939Z,6.57
2019-06-23T05:10:41.242Z,6.47
2019-06-23T05:13:13.895Z,5.23
2019-06-23T05:15:46.826Z,9.87
2019-06-23T05:18:19.156Z,5.03
2019-06-23T05:20:51.838Z,4.57
2019-06-23T05:23:24.297Z,5.20
2019-06-23T05:25:57.697Z,6.57
2019-06-23T05:28:30.338Z,5.60
2019-06-23T05:31:03.305Z,6.53
2019-06-23T05:33:35.938Z,7.63
2019-06-23T05:36:08.463Z,5.73
2019-06-23T05:38:40.923Z,4.70
2019-06-23T05:41:13.437Z,4.03
2019-06-23T05:43:45.914Z,4.90
2019-06-23T05:46:18.831Z,5.17
2019-06-23T05:48:51.162Z,4.80
2019-06-23T05:51:23.663Z,5.80
2019-06-23T05:53:57.208Z,4.33
2019-06-23T05:56:29.958Z,5.37
2019-06-23T05:59:02.554Z,4.63
2019-06-23T06:01:34.984Z,4.80
2019-06-23T06:04:07.608Z,4.80
2019-06-23T06:06:54.651Z,3.70
2019-06-23T06:09:14.412Z,4.47
2019-06-23T06:11:47.363Z,5.13
2019-06-23T06:14:20.137Z,5.33
2019-06-23T06:16:52.970Z,3.83
2019-06-23T06:19:25.222Z,5.27
2019-06-23T06:21:57.507Z,4.17
2019-06-23T06:24:29.734Z,4.23
2019-06-23T06:27:02.569Z,4.13
2019-06-23T06:29:35.296Z,6.57
2019-06-23T06:32:09.402Z,3.70
2019-06-23T06:34:42.247Z,4.27
2019-06-23T06:37:14.557Z,4.10
2019-06-23T06:39:47.237Z,4.43
2019-06-23T06:42:20.026Z,6.13
2019-06-23T06:44:52.479Z,3.67
2019-06-23T06:47:25.136Z,3.63
2019-06-23T06:49:57.383Z,3.73
2019-06-23T06:52:29.769Z,4.07
2019-06-23T06:55:02.117Z,4.80
2019-06-23T06:57:34.602Z,4.83
2019-06-23T07:00:12.090Z,4.80
2019-06-23T07:02:44.835Z,4.97
2019-06-23T07:05:17.476Z,3.60
2019-06-23T07:07:50.593Z,5.73
2019-06-23T07:10:23.119Z,3.63
2019-06-23T07:12:55.533Z,4.03
2019-06-23T07:15:28.436Z,6.13
2019-06-23T07:18:02.232Z,4.77
2019-06-23T07:20:34.677Z,3.30
2019-06-23T07:23:07.594Z,3.63
2019-06-23T07:25:40.018Z,4.03
2019-06-23T07:28:12.522Z,4.10
2019-06-23T07:31:21.040Z,4.97
2019-06-23T07:33:53.447Z,4.47
2019-06-23T07:36:25.883Z,2.67
2019-06-23T07:38:58.473Z,3.60
2019-06-23T07:41:31.948Z,3.97
2019-06-23T07:44:05.168Z,3.93
2019-06-23T07:46:37.494Z,5.37
2019-06-23T07:49:11.691Z,3.83
2019-06-23T07:51:44.916Z,3.97
2019-06-23T07:54:17.630Z,3.93
2019-06-23T07:56:49.910Z,2.07
2019-06-23T07:59:22.409Z,3.13
2019-06-23T08:01:54.635Z,4.27
2019-06-23T08:04:28.561Z,5.53
2019-06-23T08:07:00.788Z,3.40
2019-06-23T08:09:33.919Z,4.07
2019-06-23T08:12:06.652Z,2.80
2019-06-23T08:14:39.117Z,3.50
2019-06-23T08:17:11.776Z,3.03
2019-06-23T08:19:45.963Z,3.23
2019-06-23T08:22:18.544Z,3.57
2019-06-23T08:24:52.395Z,3.20
2019-06-23T08:27:25.430Z,3.00
2019-06-23T08:29:58.230Z,2.80
2019-06-23T08:32:30.449Z,2.77
2019-06-23T08:35:02.766Z,2.90
2019-06-23T08:37:35.130Z,4.27
2019-06-23T08:40:08.439Z,3.37
2019-06-23T08:42:41.271Z,3.13
2019-06-23T08:45:13.756Z,2.57
2019-06-23T08:47:46.274Z,3.50
2019-06-23T08:50:19.293Z,2.53
2019-06-23T08:52:52.033Z,3.40
2019-06-23T08:55:24.377Z,2.43
2019-06-23T08:57:57.182Z,3.83
2019-06-23T09:00:29.600Z,3.70
2019-06-23T09:03:02.642Z,2.60
2019-06-23T09:05:35.133Z,3.07
2019-06-23T09:08:09.747Z,3.27
2019-06-23T09:10:42.832Z,4.17
2019-06-23T09:13:15.661Z,3.37
2019-06-23T09:15:47.961Z,2.60
2019-06-23T09:18:20.398Z,4.10
2019-06-23T09:20:53.476Z,3.73
2019-06-23T09:23:26.558Z,4.10
2019-06-23T09:25:58.880Z,3.27
2019-06-23T09:28:31.494Z,2.97
2019-06-23T09:31:04.186Z,3.50
2019-06-23T09:33:37.040Z,2.93
2019-06-23T09:36:09.921Z,3.30
2019-06-23T09:38:47.844Z,4.23
2019-06-23T09:41:16.625Z,4.17
2019-06-23T09:43:49.046Z,2.87
2019-06-23T09:46:21.877Z,2.37
2019-06-23T09:48:54.652Z,3.20
2019-06-23T09:51:27.179Z,5.03
2019-06-23T09:53:59.742Z,4.47
2019-06-23T09:56:32.804Z,3.80
2019-06-23T09:59:05.477Z,3.40
2019-06-23T10:01:37.878Z,2.40
2019-06-23T10:04:10.334Z,2.30
2019-06-23T10:06:42.682Z,3.63
2019-06-23T10:09:15.044Z,4.37
2019-06-23T10:11:47.744Z,2.57
2019-06-23T10:14:20.627Z,3.33
2019-06-23T10:16:53.027Z,4.23
2019-06-23T10:19:25.452Z,2.90
2019-06-23T10:21:59.085Z,3.87
2019-06-23T10:24:31.304Z,2.20
2019-06-23T10:27:04.024Z,2.57
2019-06-23T10:29:37.022Z,2.83
2019-06-23T10:32:09.804Z,2.30
2019-06-23T10:34:42.176Z,3.40
2019-06-23T10:37:14.944Z,2.20
2019-06-23T10:39:48.039Z,3.80
2019-06-23T10:42:20.874Z,2.80
2019-06-23T10:44:53.755Z,2.77
2019-06-23T10:47:26.998Z,3.10
2019-06-23T10:50:00.090Z,2.50
2019-06-23T10:52:32.699Z,2.53
2019-06-23T10:55:10.702Z,2.33
2019-06-23T10:57:43.432Z,1.90
2019-06-23T11:00:18.246Z,2.47
2019-06-23T11:02:51.364Z,2.63
2019-06-23T11:05:24.143Z,4.47
2019-06-23T11:07:57.147Z,2.03
2019-06-23T11:10:29.471Z,2.20
2019-06-23T11:13:02.405Z,2.27
2019-06-23T11:15:35.081Z,3.57
2019-06-23T11:18:09.002Z,2.73
2019-06-23T11:20:41.638Z,2.00
2019-06-23T11:23:14.635Z,2.17
2019-06-23T11:25:47.279Z,3.13
2019-06-23T11:28:20.100Z,2.63
2019-06-23T11:30:53.086Z,3.03
2019-06-23T11:33:26.074Z,2.53
2019-06-23T11:35:58.862Z,3.53
2019-06-23T11:38:31.638Z,1.97
2019-06-23T11:41:04.528Z,3.50
2019-06-23T11:43:39.485Z,2.40
2019-06-23T11:46:12.395Z,2.87
2019-06-23T11:48:45.173Z,1.40
2019-06-23T11:51:17.798Z,1.77
2019-06-23T11:53:50.492Z,3.10
2019-06-23T11:56:22.722Z,2.23
2019-06-23T11:58:55.427Z,2.73
2019-06-23T12:01:27.935Z,2.20
2019-06-23T12:04:00.387Z,3.27
2019-06-23T12:06:32.963Z,2.67
2019-06-23T12:09:07.173Z,2.33
2019-06-23T12:11:39.704Z,2.87
2019-06-23T12:14:12.624Z,2.97
2019-06-23T12:16:45.063Z,2.57
2019-06-23T12:19:17.783Z,2.70
2019-06-23T12:21:50.570Z,4.97
2019-06-23T12:24:24.519Z,2.53
2019-06-23T12:26:57.565Z,2.70
2019-06-23T12:29:30.078Z,4.43
2019-06-23T12:32:02.828Z,2.20
2019-06-23T12:34:35.424Z,2.40
2019-06-23T12:37:08.008Z,2.60
2019-06-23T12:39:40.416Z,3.10
2019-06-23T12:42:13.026Z,2.20
2019-06-23T12:44:45.704Z,3.95
2019-06-23T12:47:18.016Z,2.40
2019-06-23T12:49:50.317Z,3.30
2019-06-23T12:52:22.562Z,2.23
2019-06-23T12:54:55.361Z,5.10
2019-06-23T12:57:27.974Z,2.35
2019-06-23T13:00:00.669Z,3.17
2019-06-23T13:02:32.897Z,1.55
2019-06-23T13:05:06.301Z,2.12
2019-06-23T13:07:38.584Z,2.02
2019-06-23T13:10:12.100Z,2.15
2019-06-23T13:12:44.414Z,2.08
2019-06-23T13:15:17.009Z,2.50
2019-06-23T13:17:49.314Z,2.72
2019-06-23T13:20:22.000Z,2.08
2019-06-23T13:22:55.190Z,3.60
2019-06-23T13:25:28.267Z,2.45
2019-06-23T13:28:00.562Z,2.85
2019-06-23T13:30:33.539Z,2.42
2019-06-23T13:33:05.765Z,2.62
2019-06-23T13:35:38.302Z,2.62
2019-06-23T13:38:10.543Z,2.10
2019-06-23T13:40:55.773Z,2.92
2019-06-23T13:43:17.755Z,2.45
2019-06-23T13:45:50.052Z,2.42
2019-06-23T13:48:22.707Z,3.22
2019-06-23T13:50:54.994Z,2.08
2019-06-23T13:53:27.759Z,2.30
2019-06-23T13:56:00.058Z,1.92
2019-06-23T13:58:32.320Z,3.05
2019-06-23T14:01:05.472Z,2.12
2019-06-23T14:03:37.770Z,3.02
2019-06-23T14:06:10.527Z,2.37
2019-06-23T14:08:43.209Z,3.17
2019-06-23T14:11:16.186Z,3.77
2019-06-23T14:13:48.750Z,2.77
2019-06-23T14:16:21.385Z,3.10
2019-06-23T14:18:53.832Z,2.30
2019-06-23T14:21:26.212Z,3.50
2019-06-23T14:23:58.881Z,6.33
2019-06-23T14:26:31.863Z,2.40
2019-06-23T14:29:04.600Z,2.15
2019-06-23T14:31:36.898Z,2.52
2019-06-23T14:34:09.137Z,2.00
2019-06-23T14:36:41.866Z,2.75
2019-06-23T14:39:14.432Z,1.72
2019-06-23T14:41:47.111Z,3.30
2019-06-23T14:44:20.091Z,2.47
2019-06-23T14:46:52.597Z,2.65
2019-06-23T14:49:25.153Z,4.55
2019-06-23T14:51:57.749Z,3.08
2019-06-23T14:54:30.283Z,2.77
2019-06-23T14:57:02.590Z,1.50
2019-06-23T14:59:35.308Z,2.10
2019-06-23T15:02:08.204Z,1.95
2019-06-23T15:04:40.819Z,2.60
2019-06-23T15:07:13.109Z,3.80
2019-06-23T15:09:45.600Z,3.35
2019-06-23T15:12:17.902Z,1.80
2019-06-23T15:14:50.724Z,3.50
2019-06-23T15:17:23.410Z,1.90
2019-06-23T15:19:56.087Z,2.65
2019-06-23T15:22:28.396Z,4.08
2019-06-23T15:25:01.235Z,1.70
2019-06-23T15:27:33.861Z,4.45
2019-06-23T15:30:08.637Z,1.70
2019-06-23T15:32:40.936Z,2.92
2019-06-23T15:35:13.176Z,3.90
2019-06-23T15:37:45.863Z,2.85
2019-06-23T15:40:18.407Z,2.27
2019-06-23T15:42:51.192Z,2.75
2019-06-23T15:45:24.914Z,1.92
2019-06-23T15:47:57.530Z,4.75
2019-06-23T15:50:30.007Z,2.30
2019-06-23T15:53:02.327Z,4.15
2019-06-23T15:55:34.568Z,2.70
2019-06-23T15:58:07.808Z,1.62
2019-06-23T16:00:40.064Z,1.92
2019-06-23T16:03:13.980Z,2.05
2019-06-23T16:05:46.520Z,2.58
2019-06-23T16:08:19.248Z,1.98
2019-06-23T16:10:51.745Z,2.27
2019-06-23T16:13:24.121Z,3.35
2019-06-23T16:15:56.418Z,2.60
2019-06-23T16:18:29.132Z,2.27
2019-06-23T16:21:01.377Z,2.87
2019-06-23T16:23:34.407Z,1.40
2019-06-23T16:26:07.579Z,1.62
2019-06-23T16:28:40.393Z,3.05
2019-06-23T16:31:13.155Z,2.08
2019-06-23T16:33:45.453Z,3.35
2019-06-23T16:36:17.697Z,2.40
2019-06-23T16:38:50.365Z,3.85
2019-06-23T16:41:22.592Z,2.33
2019-06-23T16:43:56.731Z,1.55
2019-06-23T16:46:28.985Z,1.80
2019-06-23T16:49:01.377Z,3.55
2019-06-23T16:51:33.610Z,3.15
2019-06-23T16:54:06.341Z,3.33
2019-06-23T16:56:39.333Z,1.42
2019-06-23T16:59:11.747Z,4.15
2019-06-23T17:01:44.443Z,2.55
2019-06-23T17:04:17.213Z,1.75
2019-06-23T17:06:49.546Z,1.82
2019-06-23T17:09:22.320Z,2.17
2019-06-23T17:11:54.910Z,1.55
2019-06-23T17:14:27.505Z,2.70
2019-06-23T17:17:00.056Z,1.70
2019-06-23T17:19:33.413Z,2.50
2019-06-23T17:22:06.130Z,2.12
2019-06-23T17:24:38.681Z,2.87
2019-06-23T17:27:10.945Z,2.62
2019-06-23T17:29:44.264Z,2.37
2019-06-23T17:32:16.730Z,1.72
2019-06-23T17:34:49.134Z,2.35
2019-06-23T17:37:22.093Z,1.55
2019-06-23T17:39:54.600Z,2.20
2019-06-23T17:42:26.844Z,2.12
2019-06-23T17:44:59.137Z,1.65
2019-06-23T17:47:31.403Z,2.20
2019-06-23T17:50:06.901Z,2.67
2019-06-23T17:52:39.714Z,1.70
2019-06-23T17:55:13.108Z,1.73
2019-06-23T17:57:45.447Z,2.53
2019-06-23T18:00:19.586Z,3.03
2019-06-23T18:02:53.266Z,2.90
2019-06-23T18:05:25.513Z,2.00
2019-06-23T18:07:58.402Z,2.73
2019-06-23T18:10:31.084Z,2.53
2019-06-23T18:13:03.554Z,2.13
2019-06-23T18:15:36.234Z,2.50
2019-06-23T18:18:08.518Z,2.53
2019-06-23T18:20:43.303Z,4.80
2019-06-23T18:23:16.536Z,3.77
2019-06-23T18:25:49.244Z,2.70
2019-06-23T18:28:23.119Z,2.90
2019-06-23T18:30:55.360Z,3.20
2019-06-23T18:33:28.123Z,2.67
2019-06-23T18:36:00.361Z,4.03
2019-06-23T18:38:33.351Z,1.70
2019-06-23T18:41:05.688Z,3.27
2019-06-23T18:43:41.091Z,2.40
2019-06-23T18:46:12.346Z,2.20
2019-06-23T18:48:44.634Z,2.13
2019-06-23T18:51:18.463Z,3.43
2019-06-23T18:53:50.850Z,4.20
2019-06-23T18:56:23.093Z,2.97
2019-06-23T18:58:56.240Z,2.33
2019-06-23T19:01:28.883Z,1.97
2019-06-23T19:04:01.175Z,3.00
2019-06-23T19:06:33.716Z,3.53
2019-06-23T19:09:06.182Z,3.33
2019-06-23T19:11:39.758Z,1.93
2019-06-23T19:14:12.347Z,2.40
2019-06-23T19:16:45.159Z,2.00
2019-06-23T19:19:17.423Z,2.13
2019-06-23T19:21:50.099Z,4.43
2019-06-23T19:24:22.788Z,3.63
2019-06-23T19:26:55.562Z,2.80
2019-06-23T19:29:27.829Z,2.67
2019-06-23T19:32:00.264Z,2.87
2019-06-23T19:34:33.094Z,3.50
2019-06-23T19:37:05.619Z,3.67
2019-06-23T19:39:38.446Z,2.93
2019-06-23T19:42:11.500Z,3.43
2019-06-23T19:44:43.982Z,5.07
2019-06-23T19:47:16.315Z,2.97
2019-06-23T19:49:48.787Z,4.33
2019-06-23T19:52:21.539Z,4.43
2019-06-23T19:54:54.529Z,2.63
2019-06-23T19:57:27.967Z,2.87
2019-06-23T20:00:00.708Z,3.20
2019-06-23T20:02:32.945Z,2.77
2019-06-23T20:05:08.965Z,3.03
2019-06-23T20:07:41.423Z,3.23
2019-06-23T20:10:15.630Z,3.03
2019-06-23T20:12:48.301Z,4.07
2019-06-23T20:15:27.859Z,2.40
2019-06-23T20:17:54.986Z,3.17
2019-06-23T20:20:27.774Z,3.30
2019-06-23T20:22:59.994Z,3.07
2019-06-23T20:25:32.373Z,3.17
2019-06-23T20:28:04.610Z,3.07
2019-06-23T20:30:37.264Z,5.37
2019-06-23T20:33:09.803Z,4.10
2019-06-23T20:35:42.675Z,5.37
2019-06-23T20:38:15.151Z,4.07
2019-06-23T20:40:47.510Z,3.37
2019-06-23T20:43:20.341Z,6.07
2019-06-23T20:45:52.908Z,4.30
2019-06-23T20:48:25.240Z,3.43
2019-06-23T20:50:58.200Z,2.97
2019-06-23T20:53:31.066Z,2.73
2019-06-23T20:56:03.890Z,3.70
2019-06-23T20:58:36.329Z,3.87
2019-06-23T21:01:09.436Z,3.70
2019-06-23T21:03:42.201Z,2.50
2019-06-23T21:06:23.383Z,3.70
2019-06-23T21:08:49.425Z,2.37
2019-06-23T21:11:21.901Z,3.30
2019-06-23T21:13:54.139Z,3.63
2019-06-23T21:16:27.086Z,4.33
2019-06-23T21:18:59.537Z,3.87
2019-06-23T21:21:32.386Z,3.33
2019-06-23T21:24:06.774Z,2.97
2019-06-23T21:26:39.579Z,3.70
2019-06-23T21:29:12.343Z,6.93
2019-06-23T21:31:45.254Z,3.03
2019-06-23T21:34:18.239Z,4.87
2019-06-23T21:36:51.215Z,2.73
2019-06-23T21:39:23.739Z,3.53
2019-06-23T21:41:56.210Z,2.40
2019-06-23T21:44:28.952Z,2.20
2019-06-23T21:47:02.013Z,2.93
2019-06-23T21:49:34.664Z,3.13
2019-06-23T21:52:07.765Z,3.40
2019-06-23T21:54:40.109Z,2.43
2019-06-23T21:57:12.822Z,3.83
2019-06-23T21:59:45.156Z,4.43
2019-06-23T22:02:17.929Z,4.43
2019-06-23T22:04:50.710Z,3.07
2019-06-23T22:07:23.676Z,3.07
2019-06-23T22:09:56.206Z,3.20
2019-06-23T22:12:29.894Z,4.80
2019-06-23T22:15:02.688Z,3.67
2019-06-23T22:17:35.257Z,3.67
2019-06-23T22:20:08.290Z,2.50
2019-06-23T22:22:41.163Z,3.13
2019-06-23T22:25:14.003Z,2.70
2019-06-23T22:27:46.560Z,4.03
2019-06-23T22:30:19.489Z,3.20
2019-06-23T22:32:51.880Z,2.70
2019-06-23T22:35:24.596Z,4.67
2019-06-23T22:37:57.262Z,3.13
2019-06-23T22:40:30.050Z,4.00
2019-06-23T22:43:03.227Z,3.40
2019-06-23T22:45:47.080Z,3.30
2019-06-23T22:48:09.876Z,5.20
2019-06-23T22:50:43.513Z,5.13
2019-06-23T22:53:15.887Z,3.13
2019-06-23T22:55:48.882Z,3.90
2019-06-23T22:58:21.683Z,3.87
2019-06-23T23:00:54.402Z,3.77
2019-06-23T23:03:26.770Z,3.30
2019-06-23T23:05:59.611Z,3.43
2019-06-23T23:08:32.234Z,4.73
2019-06-23T23:11:04.472Z,8.10
2019-06-23T23:13:37.080Z,6.60
2019-06-23T23:16:10.120Z,2.70
2019-06-23T23:18:42.490Z,4.23
2019-06-23T23:21:15.170Z,3.40
2019-06-23T23:23:48.157Z,2.90
2019-06-23T23:26:21.170Z,5.10
2019-06-23T23:28:53.816Z,3.43
2019-06-23T23:31:26.662Z,4.17
2019-06-23T23:33:59.696Z,3.73
2019-06-23T23:36:32.032Z,3.57
2019-06-23T23:39:05.412Z,2.83
2019-06-23T23:41:38.346Z,2.70
2019-06-23T23:44:10.623Z,3.87
2019-06-23T23:46:43.760Z,3.87
2019-06-23T23:49:16.035Z,3.80
2019-06-23T23:51:48.656Z,4.43
2019-06-23T23:54:20.935Z,3.17
2019-06-23T23:56:53.179Z,4.03
2019-06-23T23:59:25.870Z,4.30
